Rockaway Beach, Missouri
Current Conditions -  °F | °C
As of 9:48 AM on Sunday 23 Nov 2014 (Local Time) from KBBG Reporting Station
Haze Haze  
Wind Chill: 55°   Ceiling: 600
Heat Index: 55°   Visibility: 5mi
Dew Point: 54°   Wind: 8mph
Humidity: 94%   Direction: 130°SE
Pressure: 29.54"   Gusts: NA
Location:  36.7°N, 93.16°W
Report Text: KBBG 231548Z 13007KT 5SM BR OVC006 13/12 A2954
Loading
Personal Weather Stations






























Interactive Weather Map New forecast layout! Learn more

10-Day Weather Forecast

Advertisements
Track Severe Weather on mobile